createdAt,value
2022-08-14T00:02:16.981Z,14.32
2022-08-14T00:04:46.877Z,14.32
2022-08-14T00:07:16.114Z,13.68
2022-08-14T00:10:01.793Z,13.82
2022-08-14T00:12:53.263Z,13.73
2022-08-14T00:15:23.624Z,12.50
2022-08-14T00:17:53.492Z,13.98
2022-08-14T00:20:30.587Z,13.43
2022-08-14T00:23:12.309Z,13.75
2022-08-14T00:25:58.578Z,13.77
2022-08-14T00:28:34.902Z,13.30
2022-08-14T00:31:04.580Z,13.18
2022-08-14T00:33:51.838Z,13.07
2022-08-14T00:36:37.268Z,14.05
2022-08-14T00:39:17.846Z,13.35
2022-08-14T00:41:47.418Z,13.15
2022-08-14T00:44:21.560Z,12.85
2022-08-14T00:47:01.268Z,12.88
2022-08-14T00:49:38.322Z,12.48
2022-08-14T00:52:14.103Z,13.07
2022-08-14T00:54:46.639Z,12.82
2022-08-14T00:57:15.755Z,11.77
2022-08-14T00:59:45.626Z,12.90
2022-08-14T01:02:14.732Z,14.15
2022-08-14T01:04:54.301Z,13.50
2022-08-14T01:07:24.885Z,13.65
2022-08-14T01:09:57.342Z,13.30
2022-08-14T01:12:29.786Z,13.02
2022-08-14T01:14:58.991Z,13.60
2022-08-14T01:17:49.818Z,13.05
2022-08-14T01:20:39.654Z,12.95
2022-08-14T01:23:16.640Z,14.65
2022-08-14T01:25:47.238Z,13.93
2022-08-14T01:28:46.229Z,13.25
2022-08-14T01:31:06.389Z,13.02
2022-08-14T01:33:59.080Z,12.77
2022-08-14T01:36:23.885Z,11.38
2022-08-14T01:38:58.285Z,12.80
2022-08-14T01:41:30.179Z,12.13
2022-08-14T01:44:02.214Z,14.05
2022-08-14T01:46:33.493Z,11.55
2022-08-14T01:49:06.380Z,12.80
2022-08-14T01:51:36.415Z,11.85
2022-08-14T01:54:07.471Z,12.38
2022-08-14T01:56:39.914Z,11.38
2022-08-14T01:59:18.308Z,12.07
2022-08-14T02:01:58.144Z,12.48
2022-08-14T02:04:55.681Z,13.70
2022-08-14T02:07:34.134Z,12.10
2022-08-14T02:10:06.442Z,13.75
2022-08-14T02:12:35.095Z,13.23
2022-08-14T02:15:03.521Z,12.15
2022-08-14T02:17:35.166Z,12.93
2022-08-14T02:20:04.354Z,12.35
2022-08-14T02:22:33.370Z,12.27
2022-08-14T02:25:02.497Z,13.23
2022-08-14T02:28:26.099Z,13.63
2022-08-14T02:30:20.754Z,11.98
2022-08-14T02:32:50.903Z,12.30
2022-08-14T02:35:22.058Z,13.43
2022-08-14T02:37:54.940Z,13.25
2022-08-14T02:40:32.284Z,12.38
2022-08-14T02:43:05.210Z,13.27
2022-08-14T02:45:38.522Z,12.13
2022-08-14T02:49:01.588Z,11.80
2022-08-14T02:51:04.012Z,13.80
2022-08-14T02:53:33.293Z,12.50
2022-08-14T02:56:29.462Z,12.88
2022-08-14T02:58:55.749Z,12.32
2022-08-14T03:01:31.466Z,12.88
2022-08-14T03:04:11.963Z,13.13
2022-08-14T03:06:57.142Z,12.77
2022-08-14T03:10:25.142Z,12.35
2022-08-14T03:12:31.204Z,12.13
2022-08-14T03:15:13.991Z,12.43
2022-08-14T03:17:56.831Z,12.02
2022-08-14T03:20:28.345Z,12.70
2022-08-14T03:23:00.121Z,13.65
2022-08-14T03:25:33.403Z,13.40
2022-08-14T03:28:04.128Z,12.00
2022-08-14T03:30:39.657Z,13.02
2022-08-14T03:33:10.883Z,13.13
2022-08-14T03:36:00.198Z,12.20
2022-08-14T03:39:13.884Z,13.13
2022-08-14T03:41:20.384Z,13.80
2022-08-14T03:43:57.052Z,14.10
2022-08-14T03:46:53.086Z,13.60
2022-08-14T03:49:29.190Z,14.60
2022-08-14T03:52:00.882Z,14.07
2022-08-14T03:54:30.291Z,13.55
2022-08-14T03:57:02.486Z,13.65
2022-08-14T03:59:31.590Z,14.82
2022-08-14T04:02:04.535Z,14.45
2022-08-14T04:04:38.492Z,14.55
2022-08-14T04:07:11.064Z,14.02
2022-08-14T04:09:39.608Z,14.60
2022-08-14T04:12:13.339Z,16.38
2022-08-14T04:14:43.796Z,16.15
2022-08-14T04:17:15.492Z,17.70
2022-08-14T04:19:44.309Z,14.57
2022-08-14T04:22:13.358Z,15.45
2022-08-14T04:24:45.375Z,15.05
2022-08-14T04:27:18.091Z,15.60
2022-08-14T04:29:46.643Z,14.48
2022-08-14T04:32:58.294Z,16.58
2022-08-14T04:35:07.629Z,16.25
2022-08-14T04:37:56.786Z,15.10
2022-08-14T04:40:42.964Z,16.83
2022-08-14T04:43:38.351Z,16.70
2022-08-14T04:46:08.319Z,16.02
2022-08-14T04:48:42.882Z,15.75
2022-08-14T04:51:20.847Z,16.25
2022-08-14T04:53:51.202Z,15.60
2022-08-14T04:56:33.906Z,15.88
2022-08-14T04:59:09.645Z,16.33
2022-08-14T05:01:44.708Z,16.52
2022-08-14T05:04:19.979Z,15.35
2022-08-14T05:06:49.401Z,16.33
2022-08-14T05:09:18.097Z,16.33
2022-08-14T05:11:47.592Z,17.20
2022-08-14T05:14:16.949Z,16.52
2022-08-14T05:17:04.496Z,17.50
2022-08-14T05:19:44.697Z,18.25
2022-08-14T05:22:27.050Z,19.10
2022-08-14T05:24:55.855Z,20.10
2022-08-14T05:27:24.403Z,18.98
2022-08-14T05:29:55.435Z,18.67
2022-08-14T05:32:26.918Z,21.30
2022-08-14T05:34:58.295Z,19.60
2022-08-14T05:37:28.044Z,19.90
2022-08-14T05:39:56.983Z,20.23
2022-08-14T05:42:29.015Z,19.13
2022-08-14T05:45:00.131Z,19.52
2022-08-14T05:47:39.431Z,20.90
2022-08-14T05:50:19.321Z,20.40
2022-08-14T05:52:49.476Z,20.00
2022-08-14T05:55:21.987Z,19.95
2022-08-14T05:57:52.726Z,18.25
2022-08-14T06:00:28.313Z,20.17
2022-08-14T06:03:00.012Z,18.73
2022-08-14T06:05:30.263Z,19.15
2022-08-14T06:07:59.695Z,19.27
2022-08-14T06:10:28.686Z,17.67
2022-08-14T06:12:58.155Z,16.63
2022-08-14T06:15:30.588Z,15.82
2022-08-14T06:18:00.458Z,17.27
2022-08-14T06:20:31.740Z,18.23
2022-08-14T06:23:03.069Z,15.27
2022-08-14T06:25:31.718Z,15.55
2022-08-14T06:28:00.944Z,15.70
2022-08-14T06:30:45.639Z,16.67
2022-08-14T06:33:16.320Z,16.17
2022-08-14T06:35:48.694Z,14.55
2022-08-14T06:38:18.398Z,13.82
2022-08-14T06:40:47.207Z,12.13
2022-08-14T06:43:19.166Z,12.07
2022-08-14T06:45:53.741Z,10.43
2022-08-14T06:48:24.075Z,11.65
2022-08-14T06:50:54.762Z,10.82
2022-08-14T06:53:28.013Z,10.43
2022-08-14T06:56:01.896Z,11.70
2022-08-14T06:58:32.253Z,10.48
2022-08-14T07:01:25.135Z,10.13
2022-08-14T07:04:13.011Z,10.32
2022-08-14T07:06:54.860Z,11.00
2022-08-14T07:09:27.871Z,9.38
2022-08-14T07:11:57.863Z,10.18
2022-08-14T07:14:26.472Z,11.00
2022-08-14T07:16:55.032Z,11.60
2022-08-14T07:19:23.798Z,10.88
2022-08-14T07:21:54.801Z,12.07
2022-08-14T07:24:31.075Z,12.73
2022-08-14T07:27:00.287Z,11.85
2022-08-14T07:29:29.112Z,10.95
2022-08-14T07:31:57.639Z,11.88
2022-08-14T07:34:40.706Z,12.45
2022-08-14T07:37:11.260Z,11.63
2022-08-14T07:39:39.790Z,11.00
2022-08-14T07:42:12.977Z,12.40
2022-08-14T07:44:46.573Z,11.57
2022-08-14T07:47:17.620Z,12.90
2022-08-14T07:49:50.483Z,12.85
2022-08-14T07:52:30.705Z,13.32
2022-08-14T07:55:00.812Z,12.25
2022-08-14T07:57:29.272Z,12.75
2022-08-14T07:59:57.938Z,12.43
2022-08-14T08:02:29.718Z,13.75
2022-08-14T08:05:02.659Z,12.55
2022-08-14T08:07:33.154Z,12.73
2022-08-14T08:10:02.525Z,12.50
2022-08-14T08:12:32.146Z,12.07
2022-08-14T08:15:07.544Z,12.48
2022-08-14T08:17:42.347Z,12.27
2022-08-14T08:20:20.246Z,11.57
2022-08-14T08:22:56.017Z,10.82
2022-08-14T08:25:25.236Z,10.65
2022-08-14T08:27:57.593Z,10.27
2022-08-14T08:30:26.271Z,10.68
2022-08-14T08:32:56.357Z,9.80
2022-08-14T08:35:25.778Z,9.45
2022-08-14T08:39:14.914Z,10.20
2022-08-14T08:41:11.173Z,9.35
2022-08-14T08:43:46.219Z,8.82
2022-08-14T08:46:18.584Z,8.35
2022-08-14T08:48:53.680Z,8.35
2022-08-14T08:51:22.787Z,8.38
2022-08-14T08:54:01.788Z,8.18
2022-08-14T08:56:39.670Z,8.93
2022-08-14T08:59:19.188Z,7.65
2022-08-14T09:01:52.387Z,7.57
2022-08-14T09:04:25.443Z,7.97
2022-08-14T09:07:09.347Z,8.68
2022-08-14T09:09:54.175Z,8.20
2022-08-14T09:12:32.391Z,7.28
2022-08-14T09:15:02.611Z,7.70
2022-08-14T09:17:31.108Z,7.43
2022-08-14T09:20:01.799Z,8.18
2022-08-14T09:22:36.493Z,7.28
2022-08-14T09:25:12.986Z,6.97
2022-08-14T09:27:43.575Z,7.82
2022-08-14T09:30:32.936Z,7.03
2022-08-14T09:33:11.705Z,7.00
2022-08-14T09:35:45.262Z,7.07
2022-08-14T09:38:26.139Z,7.05
2022-08-14T09:41:01.439Z,6.88
2022-08-14T09:43:32.732Z,7.68
2022-08-14T09:46:02.656Z,7.05
2022-08-14T09:48:31.587Z,7.38
2022-08-14T09:54:19.404Z,7.15
2022-08-14T09:56:56.671Z,6.38
2022-08-14T09:59:28.217Z,6.45
2022-08-14T10:02:01.209Z,6.85
2022-08-14T10:04:35.799Z,7.00
2022-08-14T10:07:08.102Z,7.03
2022-08-14T10:10:02.054Z,7.22
2022-08-14T10:12:50.198Z,8.68
2022-08-14T10:15:25.338Z,7.70
2022-08-14T10:18:09.497Z,7.85
2022-08-14T10:20:49.835Z,8.30
2022-08-14T10:23:19.428Z,8.20
2022-08-14T10:25:50.725Z,7.35
2022-08-14T10:28:57.438Z,6.68
2022-08-14T10:31:18.236Z,5.85
2022-08-14T10:34:00.333Z,5.40
2022-08-14T10:36:35.118Z,3.42
2022-08-14T10:39:10.028Z,3.10
2022-08-14T10:41:48.530Z,3.50
2022-08-14T10:44:20.825Z,3.85
2022-08-14T10:47:39.436Z,4.20
2022-08-14T10:49:47.462Z,3.92
2022-08-14T10:52:22.162Z,3.50
2022-08-14T10:54:56.320Z,3.70
2022-08-14T10:57:25.894Z,3.55
2022-08-14T10:59:56.961Z,3.70
2022-08-14T11:02:45.044Z,4.10
2022-08-14T11:05:19.340Z,3.78
2022-08-14T11:07:57.183Z,3.88
2022-08-14T11:10:29.053Z,3.90
2022-08-14T11:12:58.725Z,3.50
2022-08-14T11:15:32.380Z,4.18
2022-08-14T11:18:01.291Z,4.63
2022-08-14T11:20:31.009Z,4.22
2022-08-14T11:23:01.117Z,4.35
2022-08-14T11:25:41.327Z,4.47
2022-08-14T11:28:14.686Z,4.70
2022-08-14T11:30:54.270Z,4.85
2022-08-14T11:33:29.504Z,4.85
2022-08-14T11:36:00.453Z,5.50
2022-08-14T11:38:30.928Z,5.22
2022-08-14T11:41:00.212Z,5.43
2022-08-14T11:43:30.669Z,5.00
2022-08-14T11:46:03.573Z,5.10
2022-08-14T11:49:01.989Z,5.32
2022-08-14T11:51:23.717Z,5.57
2022-08-14T11:53:53.388Z,5.72
2022-08-14T11:56:25.813Z,5.97
2022-08-14T11:58:58.613Z,6.20
2022-08-14T12:01:31.231Z,5.65
2022-08-14T12:04:32.019Z,5.13
2022-08-14T12:06:58.703Z,5.70
2022-08-14T12:09:31.204Z,6.13
2022-08-14T12:11:59.825Z,5.53
2022-08-14T12:14:34.390Z,5.40
2022-08-14T12:17:12.539Z,5.40
2022-08-14T12:19:50.994Z,5.80
2022-08-14T12:22:30.312Z,5.32
2022-08-14T12:24:59.628Z,5.80
2022-08-14T12:27:46.741Z,5.82
2022-08-14T12:30:29.237Z,5.88
2022-08-14T12:33:08.909Z,6.40
2022-08-14T12:35:42.708Z,6.22
2022-08-14T12:38:19.412Z,5.95
2022-08-14T12:40:48.927Z,5.80
2022-08-14T12:43:18.278Z,6.05
2022-08-14T12:45:50.403Z,5.72
2022-08-14T12:48:31.612Z,5.70
2022-08-14T12:51:01.588Z,5.75
2022-08-14T12:53:38.718Z,5.70
2022-08-14T12:56:21.553Z,5.82
2022-08-14T12:58:58.409Z,5.60
2022-08-14T13:01:28.615Z,5.85
2022-08-14T13:04:07.880Z,5.72
2022-08-14T13:06:39.620Z,5.72
2022-08-14T13:09:11.196Z,5.50
2022-08-14T13:11:41.413Z,5.57
2022-08-14T13:14:17.406Z,5.88
2022-08-14T13:16:50.377Z,5.18
2022-08-14T13:19:24.399Z,5.47
2022-08-14T13:22:05.315Z,5.18
2022-08-14T13:24:39.884Z,5.60
2022-08-14T13:27:09.954Z,5.03
2022-08-14T13:29:43.863Z,5.60
2022-08-14T13:32:16.148Z,5.60
2022-08-14T13:34:46.749Z,5.15
2022-08-14T13:37:16.977Z,5.38
2022-08-14T13:39:57.000Z,5.57
2022-08-14T13:42:30.747Z,5.70
2022-08-14T13:45:01.351Z,5.65
2022-08-14T13:47:30.924Z,5.78
2022-08-14T13:50:02.843Z,5.80
2022-08-14T13:52:52.214Z,5.68
2022-08-14T13:55:23.561Z,5.70
2022-08-14T13:58:04.067Z,5.90
2022-08-14T14:00:35.581Z,5.60
2022-08-14T14:03:20.291Z,6.03
2022-08-14T14:05:54.923Z,5.43
2022-08-14T14:08:46.814Z,5.35
2022-08-14T14:11:15.729Z,5.72
2022-08-14T14:13:45.917Z,5.63
2022-08-14T14:16:26.344Z,5.70
2022-08-14T14:19:04.713Z,5.88
2022-08-14T14:21:37.194Z,5.95
2022-08-14T14:24:06.612Z,5.05
2022-08-14T14:26:36.310Z,5.75
2022-08-14T14:29:04.994Z,5.70
2022-08-14T14:31:33.424Z,5.22
2022-08-14T14:34:07.337Z,5.50
2022-08-14T14:36:45.231Z,5.35
2022-08-14T14:39:20.273Z,5.55
2022-08-14T14:41:56.282Z,4.93
2022-08-14T14:44:25.920Z,4.90
2022-08-14T14:46:57.059Z,4.95
2022-08-14T14:49:41.965Z,4.88
2022-08-14T14:52:27.308Z,5.00
2022-08-14T14:54:57.732Z,5.38
2022-08-14T14:57:35.712Z,5.70
2022-08-14T15:00:06.396Z,5.40
2022-08-14T15:02:38.133Z,5.53
2022-08-14T15:05:08.526Z,5.22
2022-08-14T15:07:38.898Z,5.57
2022-08-14T15:10:28.102Z,5.25
2022-08-14T15:12:57.931Z,5.43
2022-08-14T15:15:29.070Z,5.20
2022-08-14T15:18:01.682Z,5.40
2022-08-14T15:20:31.445Z,5.18
2022-08-14T15:23:11.996Z,5.32
2022-08-14T15:25:41.380Z,5.50
2022-08-14T15:28:11.673Z,5.10
2022-08-14T15:30:41.348Z,5.18
2022-08-14T15:33:10.343Z,5.22
2022-08-14T15:35:46.075Z,5.22
2022-08-14T15:38:17.829Z,4.90
2022-08-14T15:40:51.635Z,5.10
2022-08-14T15:43:27.251Z,5.18
2022-08-14T15:45:59.675Z,5.28
2022-08-14T15:48:29.605Z,4.95
2022-08-14T15:50:58.151Z,4.82
2022-08-14T15:53:31.424Z,5.18
2022-08-14T15:56:00.740Z,5.28
2022-08-14T15:58:30.780Z,4.97
2022-08-14T16:01:31.209Z,4.32
2022-08-14T16:04:05.631Z,4.43
2022-08-14T16:06:35.838Z,4.70
2022-08-14T16:09:10.627Z,4.43
2022-08-14T16:11:43.242Z,4.50
2022-08-14T16:14:20.605Z,4.78
2022-08-14T16:16:59.952Z,4.38
2022-08-14T16:19:31.176Z,4.60
2022-08-14T16:22:57.539Z,4.82
2022-08-14T16:25:00.012Z,4.20
2022-08-14T16:27:34.097Z,3.72
2022-08-14T16:30:06.479Z,4.53
2022-08-14T16:32:54.605Z,4.22
2022-08-14T16:35:26.418Z,3.85
2022-08-14T16:38:19.904Z,3.47
2022-08-14T16:41:14.896Z,3.70
2022-08-14T16:43:44.671Z,3.70
2022-08-14T16:46:14.826Z,3.75
2022-08-14T16:48:55.661Z,3.58
2022-08-14T16:51:28.151Z,3.78
2022-08-14T16:53:56.817Z,3.47
2022-08-14T16:56:28.071Z,3.88
2022-08-14T16:59:07.192Z,3.67
2022-08-14T17:01:37.575Z,3.65
2022-08-14T17:04:14.920Z,3.90
2022-08-14T17:06:54.590Z,4.47
2022-08-14T17:09:48.509Z,4.20
2022-08-14T17:12:28.635Z,4.00
2022-08-14T17:15:10.798Z,4.05
2022-08-14T17:17:50.107Z,4.28
2022-08-14T17:20:53.832Z,4.15
2022-08-14T17:23:16.205Z,4.65
2022-08-14T17:25:49.536Z,4.53
2022-08-14T17:31:12.012Z,4.85
2022-08-14T17:33:44.311Z,4.95
2022-08-14T17:36:22.644Z,4.72
2022-08-14T17:38:59.684Z,4.40
2022-08-14T17:41:36.308Z,4.78
2022-08-14T17:44:34.059Z,4.65
2022-08-14T17:47:18.274Z,4.88
2022-08-14T17:49:52.233Z,4.50
2022-08-14T17:52:34.628Z,4.70
2022-08-14T17:55:06.250Z,4.60
2022-08-14T17:57:41.138Z,4.38
2022-08-14T18:00:12.339Z,4.63
2022-08-14T18:02:50.798Z,4.93
2022-08-14T18:05:23.013Z,4.80
2022-08-14T18:08:32.916Z,4.78
2022-08-14T18:10:55.376Z,4.90
2022-08-14T18:13:50.013Z,5.18
2022-08-14T18:16:19.811Z,5.03
2022-08-14T18:18:50.977Z,5.03
2022-08-14T18:21:42.511Z,5.13
2022-08-14T18:24:28.180Z,5.68
2022-08-14T18:27:02.186Z,5.22
2022-08-14T18:29:31.548Z,5.50
2022-08-14T18:32:00.688Z,5.68
2022-08-14T18:34:37.610Z,5.75
2022-08-14T18:37:17.680Z,6.22
2022-08-14T18:40:02.924Z,5.57
2022-08-14T18:42:44.285Z,5.93
2022-08-14T18:45:16.069Z,6.10
2022-08-14T18:50:48.678Z,6.80
2022-08-14T18:53:24.521Z,6.18
2022-08-14T18:55:54.751Z,6.53
2022-08-14T18:58:31.451Z,6.10
2022-08-14T19:01:04.634Z,6.72
2022-08-14T19:03:58.808Z,7.20
2022-08-14T19:06:56.461Z,8.25
2022-08-14T19:09:43.996Z,7.85
2022-08-14T19:12:44.372Z,8.13
2022-08-14T19:15:21.043Z,9.20
2022-08-14T19:18:14.266Z,8.77
2022-08-14T19:20:52.977Z,9.68
2022-08-14T19:23:42.925Z,8.60
2022-08-14T19:26:33.982Z,8.95
2022-08-14T19:29:19.634Z,9.23
2022-08-14T19:31:55.805Z,9.60
2022-08-14T19:34:40.452Z,9.45
2022-08-14T19:37:37.029Z,9.88
2022-08-14T19:40:15.138Z,10.00
2022-08-14T19:42:46.679Z,9.85
2022-08-14T19:45:16.211Z,10.32
2022-08-14T19:47:50.015Z,10.02
2022-08-14T19:50:37.839Z,9.98
2022-08-14T19:53:17.006Z,10.20
2022-08-14T19:55:58.472Z,10.25
2022-08-14T19:58:38.113Z,9.45
2022-08-14T20:01:36.646Z,11.38
2022-08-14T20:04:08.026Z,11.02
2022-08-14T20:06:56.834Z,11.88
2022-08-14T20:11:08.343Z,12.05
2022-08-14T20:12:28.984Z,12.38
2022-08-14T20:15:13.620Z,12.50
2022-08-14T20:17:52.754Z,13.55
2022-08-14T20:20:31.588Z,13.32
2022-08-14T20:23:11.548Z,14.00
2022-08-14T20:25:56.374Z,14.63
2022-08-14T20:28:35.342Z,14.35
2022-08-14T20:31:14.189Z,14.50
2022-08-14T20:33:59.424Z,14.45
2022-08-14T20:36:31.753Z,15.50
2022-08-14T20:39:01.237Z,14.45
2022-08-14T20:41:29.702Z,15.40
2022-08-14T20:44:18.370Z,14.50
2022-08-14T20:46:50.019Z,15.50
2022-08-14T20:49:29.215Z,14.80
2022-08-14T20:52:00.311Z,14.45
2022-08-14T20:54:36.439Z,15.05
2022-08-14T20:57:09.016Z,14.80
2022-08-14T20:59:43.653Z,14.25
2022-08-14T21:02:29.536Z,13.93
2022-08-14T21:05:00.730Z,14.50
2022-08-14T21:07:36.682Z,15.93
2022-08-14T21:10:36.351Z,15.32
2022-08-14T21:13:27.916Z,15.20
2022-08-14T21:15:57.374Z,14.20
2022-08-14T21:18:28.882Z,15.35
2022-08-14T21:20:58.773Z,20.38
2022-08-14T21:23:32.352Z,19.00
2022-08-14T21:26:01.592Z,19.67
2022-08-14T21:28:35.194Z,18.83
2022-08-14T21:31:04.399Z,19.58
2022-08-14T21:33:35.699Z,19.35
2022-08-14T21:36:08.065Z,19.23
2022-08-14T21:38:37.982Z,18.95
2022-08-14T21:41:42.582Z,20.30
2022-08-14T21:44:18.188Z,17.77
2022-08-14T21:46:50.025Z,18.70
2022-08-14T21:49:23.469Z,17.90
2022-08-14T21:51:58.859Z,18.02
2022-08-14T21:54:49.060Z,17.20
2022-08-14T21:57:55.956Z,18.13
2022-08-14T22:00:30.184Z,23.92
2022-08-14T22:03:02.595Z,24.75
2022-08-14T22:05:32.667Z,22.63
2022-08-14T22:08:02.450Z,22.58
2022-08-14T22:10:32.598Z,25.98
2022-08-14T22:13:01.763Z,23.48
2022-08-14T22:15:31.581Z,24.05
2022-08-14T22:18:00.252Z,31.85
2022-08-14T22:20:33.079Z,44.42
2022-08-14T22:23:04.319Z,55.83
2022-08-14T22:25:34.380Z,41.67
2022-08-14T22:28:11.381Z,33.20
2022-08-14T22:30:41.731Z,29.20
2022-08-14T22:33:13.358Z,25.45
2022-08-14T22:35:43.675Z,21.30
2022-08-14T22:38:34.660Z,20.70
2022-08-14T22:41:25.621Z,19.42
2022-08-14T22:43:52.182Z,20.05
2022-08-14T22:46:22.162Z,19.27
2022-08-14T22:48:51.937Z,18.60
2022-08-14T22:51:23.581Z,19.08
2022-08-14T22:53:53.469Z,19.17
2022-08-14T22:56:29.167Z,19.27
2022-08-14T22:58:58.561Z,19.17
2022-08-14T23:01:56.637Z,19.70
2022-08-14T23:04:34.182Z,19.08
2022-08-14T23:07:14.533Z,19.55
2022-08-14T23:09:56.555Z,18.17
2022-08-14T23:12:28.524Z,18.60
2022-08-14T23:14:58.188Z,18.95
2022-08-14T23:17:27.711Z,18.73
2022-08-14T23:20:18.783Z,18.02
2022-08-14T23:22:51.147Z,17.85
2022-08-14T23:25:57.013Z,18.35
2022-08-14T23:28:34.847Z,17.85
2022-08-14T23:30:58.375Z,17.55
2022-08-14T23:33:29.229Z,17.85
2022-08-14T23:35:58.641Z,17.58
2022-08-14T23:38:30.903Z,17.33
2022-08-14T23:41:00.731Z,18.00
2022-08-14T23:43:31.656Z,17.33
2022-08-14T23:46:00.460Z,17.45
2022-08-14T23:48:29.390Z,18.13
2022-08-14T23:51:01.718Z,18.45
2022-08-14T23:53:48.421Z,17.95
2022-08-14T23:56:19.116Z,16.63
2022-08-14T23:59:00.289Z,17.73
